sensor_id;sensor_type;location;lat;lon;timestamp;temperature;humidity
65369;HTU21D;51970;53.484;49.488;2024-02-21T00:01:04;-17.65;67.50
65369;HTU21D;51970;53.484;49.488;2024-02-21T00:03:31;-17.68;66.93
65369;HTU21D;51970;53.484;49.488;2024-02-21T00:05:57;-17.57;67.20
65369;HTU21D;51970;53.484;49.488;2024-02-21T00:08:23;-17.71;68.95
65369;HTU21D;51970;53.484;49.488;2024-02-21T00:10:49;-17.62;67.87
65369;HTU21D;51970;53.484;49.488;2024-02-21T00:13:15;-17.73;67.17
65369;HTU21D;51970;53.484;49.488;2024-02-21T00:15:41;-17.69;68.49
65369;HTU21D;51970;53.484;49.488;2024-02-21T00:18:07;-17.89;66.41
65369;HTU21D;51970;53.484;49.488;2024-02-21T00:20:33;-17.77;70.14
65369;HTU21D;51970;53.484;49.488;2024-02-21T00:22:59;-17.72;68.16
65369;HTU21D;51970;53.484;49.488;2024-02-21T00:25:25;-17.83;67.17
65369;HTU21D;51970;53.484;49.488;2024-02-21T00:27:52;-17.94;67.14
65369;HTU21D;51970;53.484;49.488;2024-02-21T00:30:19;-17.92;68.12
65369;HTU21D;51970;53.484;49.488;2024-02-21T00:32:45;-18.07;66.89
65369;HTU21D;51970;53.484;49.488;2024-02-21T00:35:11;-18.13;67.22
65369;HTU21D;51970;53.484;49.488;2024-02-21T00:37:38;-18.07;67.78
65369;HTU21D;51970;53.484;49.488;2024-02-21T00:40:04;-18.13;67.39
65369;HTU21D;51970;53.484;49.488;2024-02-21T00:42:31;-18.17;68.03
65369;HTU21D;51970;53.484;49.488;2024-02-21T00:44:57;-18.06;69.07
65369;HTU21D;51970;53.484;49.488;2024-02-21T00:47:23;-18.10;68.00
65369;HTU21D;51970;53.484;49.488;2024-02-21T00:49:49;-18.16;67.43
65369;HTU21D;51970;53.484;49.488;2024-02-21T00:52:15;-18.13;68.41
65369;HTU21D;51970;53.484;49.488;2024-02-21T00:54:41;-18.03;67.98
65369;HTU21D;51970;53.484;49.488;2024-02-21T00:57:07;-18.00;67.14
65369;HTU21D;51970;53.484;49.488;2024-02-21T00:59:33;-18.30;66.14
65369;HTU21D;51970;53.484;49.488;2024-02-21T01:01:59;-18.46;66.69
65369;HTU21D;51970;53.484;49.488;2024-02-21T01:04:25;-18.46;67.13
65369;HTU21D;51970;53.484;49.488;2024-02-21T01:06:51;-18.30;67.70
65369;HTU21D;51970;53.484;49.488;2024-02-21T01:09:18;-18.19;67.78
65369;HTU21D;51970;53.484;49.488;2024-02-21T01:11:44;-18.50;66.98
65369;HTU21D;51970;53.484;49.488;2024-02-21T01:14:10;-18.31;67.88
65369;HTU21D;51970;53.484;49.488;2024-02-21T01:16:37;-18.26;67.84
65369;HTU21D;51970;53.484;49.488;2024-02-21T01:19:03;-18.17;69.62
65369;HTU21D;51970;53.484;49.488;2024-02-21T01:21:29;-18.12;67.94
65369;HTU21D;51970;53.484;49.488;2024-02-21T01:23:55;-18.22;66.69
65369;HTU21D;51970;53.484;49.488;2024-02-21T01:26:21;-18.17;67.02
65369;HTU21D;51970;53.484;49.488;2024-02-21T01:28:47;-18.09;68.23
65369;HTU21D;51970;53.484;49.488;2024-02-21T01:31:13;-18.17;66.47
65369;HTU21D;51970;53.484;49.488;2024-02-21T01:33:40;-18.29;65.80
65369;HTU21D;51970;53.484;49.488;2024-02-21T01:36:07;-18.11;66.39
65369;HTU21D;51970;53.484;49.488;2024-02-21T01:38:33;-18.58;66.56
65369;HTU21D;51970;53.484;49.488;2024-02-21T01:41:00;-18.62;66.66
65369;HTU21D;51970;53.484;49.488;2024-02-21T01:43:26;-18.77;67.15
65369;HTU21D;51970;53.484;49.488;2024-02-21T01:45:54;-18.77;66.55
65369;HTU21D;51970;53.484;49.488;2024-02-21T01:48:22;-18.41;70.35
65369;HTU21D;51970;53.484;49.488;2024-02-21T01:50:52;-17.68;72.92
65369;HTU21D;51970;53.484;49.488;2024-02-21T01:53:25;-17.63;69.75
65369;HTU21D;51970;53.484;49.488;2024-02-21T01:55:52;-17.42;69.24
65369;HTU21D;51970;53.484;49.488;2024-02-21T01:58:19;-17.09;71.05
65369;HTU21D;51970;53.484;49.488;2024-02-21T02:00:46;-16.84;71.13
65369;HTU21D;51970;53.484;49.488;2024-02-21T02:03:14;-16.55;72.17
65369;HTU21D;51970;53.484;49.488;2024-02-21T02:05:47;-16.74;69.45
65369;HTU21D;51970;53.484;49.488;2024-02-21T02:08:15;-16.53;69.75
65369;HTU21D;51970;53.484;49.488;2024-02-21T02:10:41;-16.92;69.58
65369;HTU21D;51970;53.484;49.488;2024-02-21T02:13:08;-16.97;70.01
65369;HTU21D;51970;53.484;49.488;2024-02-21T02:15:45;-16.89;70.40
65369;HTU21D;51970;53.484;49.488;2024-02-21T02:18:12;-16.69;71.84
65369;HTU21D;51970;53.484;49.488;2024-02-21T02:20:39;-16.61;67.61
65369;HTU21D;51970;53.484;49.488;2024-02-21T02:25:47;-17.57;66.56
65369;HTU21D;51970;53.484;49.488;2024-02-21T02:28:18;-17.23;69.90
65369;HTU21D;51970;53.484;49.488;2024-02-21T02:30:45;-17.33;69.05
65369;HTU21D;51970;53.484;49.488;2024-02-21T02:33:11;-17.28;69.78
65369;HTU21D;51970;53.484;49.488;2024-02-21T02:35:37;-17.22;70.92
65369;HTU21D;51970;53.484;49.488;2024-02-21T02:38:04;-17.23;71.14
65369;HTU21D;51970;53.484;49.488;2024-02-21T02:40:30;-17.14;71.05
65369;HTU21D;51970;53.484;49.488;2024-02-21T02:42:56;-17.15;70.57
65369;HTU21D;51970;53.484;49.488;2024-02-21T02:45:23;-17.26;70.35
65369;HTU21D;51970;53.484;49.488;2024-02-21T02:47:49;-17.36;70.58
65369;HTU21D;51970;53.484;49.488;2024-02-21T02:50:15;-17.23;71.32
65369;HTU21D;51970;53.484;49.488;2024-02-21T02:52:42;-17.14;71.22
65369;HTU21D;51970;53.484;49.488;2024-02-21T02:55:08;-17.04;70.97
65369;HTU21D;51970;53.484;49.488;2024-02-21T02:57:34;-17.08;70.77
65369;HTU21D;51970;53.484;49.488;2024-02-21T03:00:00;-16.97;70.46
65369;HTU21D;51970;53.484;49.488;2024-02-21T03:02:26;-16.84;71.89
65369;HTU21D;51970;53.484;49.488;2024-02-21T03:04:53;-16.80;70.55
65369;HTU21D;51970;53.484;49.488;2024-02-21T03:07:20;-16.85;70.82
65369;HTU21D;51970;53.484;49.488;2024-02-21T03:09:46;-16.94;70.63
65369;HTU21D;51970;53.484;49.488;2024-02-21T03:12:12;-16.79;70.82
65369;HTU21D;51970;53.484;49.488;2024-02-21T03:14:44;-16.81;70.48
65369;HTU21D;51970;53.484;49.488;2024-02-21T03:17:10;-16.83;70.72
65369;HTU21D;51970;53.484;49.488;2024-02-21T03:19:36;-16.95;69.44
65369;HTU21D;51970;53.484;49.488;2024-02-21T03:22:03;-16.85;70.83
65369;HTU21D;51970;53.484;49.488;2024-02-21T03:24:31;-16.89;69.49
65369;HTU21D;51970;53.484;49.488;2024-02-21T03:26:57;-17.16;68.37
65369;HTU21D;51970;53.484;49.488;2024-02-21T03:29:25;-17.29;69.08
65369;HTU21D;51970;53.484;49.488;2024-02-21T03:31:51;-17.35;70.36
65369;HTU21D;51970;53.484;49.488;2024-02-21T03:34:17;-17.31;70.35
65369;HTU21D;51970;53.484;49.488;2024-02-21T03:36:43;-17.31;70.55
65369;HTU21D;51970;53.484;49.488;2024-02-21T03:39:09;-17.26;70.90
65369;HTU21D;51970;53.484;49.488;2024-02-21T03:41:36;-17.26;69.80
65369;HTU21D;51970;53.484;49.488;2024-02-21T03:44:02;-17.30;69.68
65369;HTU21D;51970;53.484;49.488;2024-02-21T03:46:28;-17.06;69.74
65369;HTU21D;51970;53.484;49.488;2024-02-21T03:48:54;-17.01;69.21
65369;HTU21D;51970;53.484;49.488;2024-02-21T03:51:20;-17.40;69.10
65369;HTU21D;51970;53.484;49.488;2024-02-21T03:53:46;-17.45;69.73
65369;HTU21D;51970;53.484;49.488;2024-02-21T03:56:12;-17.26;70.76
65369;HTU21D;51970;53.484;49.488;2024-02-21T03:58:38;-17.23;70.33
65369;HTU21D;51970;53.484;49.488;2024-02-21T04:01:04;-17.22;70.21
65369;HTU21D;51970;53.484;49.488;2024-02-21T04:03:30;-17.16;70.48
65369;HTU21D;51970;53.484;49.488;2024-02-21T04:05:57;-17.00;70.48
65369;HTU21D;51970;53.484;49.488;2024-02-21T04:08:23;-16.94;70.29
65369;HTU21D;51970;53.484;49.488;2024-02-21T04:10:49;-16.72;69.90
65369;HTU21D;51970;53.484;49.488;2024-02-21T04:13:15;-16.71;70.29
65369;HTU21D;51970;53.484;49.488;2024-02-21T04:15:41;-16.53;69.46
65369;HTU21D;51970;53.484;49.488;2024-02-21T04:18:07;-16.52;69.02
65369;HTU21D;51970;53.484;49.488;2024-02-21T04:20:34;-16.29;70.06
65369;HTU21D;51970;53.484;49.488;2024-02-21T04:23:01;-16.23;69.35
65369;HTU21D;51970;53.484;49.488;2024-02-21T04:25:27;-15.99;70.82
65369;HTU21D;51970;53.484;49.488;2024-02-21T04:27:53;-15.96;68.73
65369;HTU21D;51970;53.484;49.488;2024-02-21T04:30:19;-15.82;68.57
65369;HTU21D;51970;53.484;49.488;2024-02-21T04:32:45;-15.77;67.75
65369;HTU21D;51970;53.484;49.488;2024-02-21T04:35:11;-15.77;67.04
65369;HTU21D;51970;53.484;49.488;2024-02-21T04:37:37;-15.75;67.12
65369;HTU21D;51970;53.484;49.488;2024-02-21T04:40:04;-15.62;66.54
65369;HTU21D;51970;53.484;49.488;2024-02-21T04:42:31;-15.76;66.29
65369;HTU21D;51970;53.484;49.488;2024-02-21T04:44:57;-15.79;66.43
65369;HTU21D;51970;53.484;49.488;2024-02-21T04:47:23;-15.73;66.78
65369;HTU21D;51970;53.484;49.488;2024-02-21T04:49:50;-15.55;66.88
65369;HTU21D;51970;53.484;49.488;2024-02-21T04:52:16;-15.45;66.04
65369;HTU21D;51970;53.484;49.488;2024-02-21T04:54:42;-15.58;65.53
65369;HTU21D;51970;53.484;49.488;2024-02-21T04:57:08;-15.54;66.26
65369;HTU21D;51970;53.484;49.488;2024-02-21T04:59:36;-15.59;65.85
65369;HTU21D;51970;53.484;49.488;2024-02-21T05:02:03;-15.36;65.64
65369;HTU21D;51970;53.484;49.488;2024-02-21T05:04:29;-15.50;65.78
65369;HTU21D;51970;53.484;49.488;2024-02-21T05:06:55;-15.34;66.14
65369;HTU21D;51970;53.484;49.488;2024-02-21T05:09:21;-15.37;65.79
65369;HTU21D;51970;53.484;49.488;2024-02-21T05:11:47;-15.26;65.53
65369;HTU21D;51970;53.484;49.488;2024-02-21T05:14:13;-15.35;65.25
65369;HTU21D;51970;53.484;49.488;2024-02-21T05:16:40;-15.25;66.11
65369;HTU21D;51970;53.484;49.488;2024-02-21T05:19:06;-14.99;65.77
65369;HTU21D;51970;53.484;49.488;2024-02-21T05:21:32;-14.94;64.88
65369;HTU21D;51970;53.484;49.488;2024-02-21T05:23:58;-14.99;64.85
65369;HTU21D;51970;53.484;49.488;2024-02-21T05:26:26;-14.92;64.90
65369;HTU21D;51970;53.484;49.488;2024-02-21T05:28:52;-14.82;64.46
65369;HTU21D;51970;53.484;49.488;2024-02-21T05:31:19;-14.69;64.69
65369;HTU21D;51970;53.484;49.488;2024-02-21T05:33:46;-14.82;65.20
65369;HTU21D;51970;53.484;49.488;2024-02-21T05:36:13;-14.41;64.59
65369;HTU21D;51970;53.484;49.488;2024-02-21T05:38:39;-14.50;64.68
65369;HTU21D;51970;53.484;49.488;2024-02-21T05:41:06;-14.47;64.58
65369;HTU21D;51970;53.484;49.488;2024-02-21T05:43:32;-14.36;64.30
65369;HTU21D;51970;53.484;49.488;2024-02-21T05:45:58;-14.13;63.60
65369;HTU21D;51970;53.484;49.488;2024-02-21T05:48:24;-14.22;64.11
65369;HTU21D;51970;53.484;49.488;2024-02-21T05:50:50;-14.12;64.50
65369;HTU21D;51970;53.484;49.488;2024-02-21T05:53:16;-13.81;63.69
65369;HTU21D;51970;53.484;49.488;2024-02-21T05:55:43;-13.77;63.24
65369;HTU21D;51970;53.484;49.488;2024-02-21T05:58:10;-13.66;63.27
65369;HTU21D;51970;53.484;49.488;2024-02-21T06:00:39;-13.49;63.56
65369;HTU21D;51970;53.484;49.488;2024-02-21T06:03:05;-13.30;62.89
65369;HTU21D;51970;53.484;49.488;2024-02-21T06:05:37;-13.04;62.50
65369;HTU21D;51970;53.484;49.488;2024-02-21T06:08:04;-13.17;62.41
65369;HTU21D;51970;53.484;49.488;2024-02-21T06:10:31;-13.12;62.71
65369;HTU21D;51970;53.484;49.488;2024-02-21T06:12:57;-12.87;63.39
65369;HTU21D;51970;53.484;49.488;2024-02-21T06:15:23;-12.69;63.46
65369;HTU21D;51970;53.484;49.488;2024-02-21T06:17:49;-12.68;62.20
65369;HTU21D;51970;53.484;49.488;2024-02-21T06:20:18;-12.34;62.44
65369;HTU21D;51970;53.484;49.488;2024-02-21T06:22:44;-12.51;61.99
65369;HTU21D;51970;53.484;49.488;2024-02-21T06:25:10;-12.39;62.12
65369;HTU21D;51970;53.484;49.488;2024-02-21T06:27:37;-12.30;62.60
65369;HTU21D;51970;53.484;49.488;2024-02-21T06:30:03;-12.13;62.63
65369;HTU21D;51970;53.484;49.488;2024-02-21T06:32:29;-12.07;62.26
65369;HTU21D;51970;53.484;49.488;2024-02-21T06:34:56;-11.86;61.96
65369;HTU21D;51970;53.484;49.488;2024-02-21T06:37:22;-11.65;62.08
65369;HTU21D;51970;53.484;49.488;2024-02-21T06:39:48;-11.55;61.00
65369;HTU21D;51970;53.484;49.488;2024-02-21T06:42:14;-11.67;60.32
65369;HTU21D;51970;53.484;49.488;2024-02-21T06:44:40;-11.64;60.76
65369;HTU21D;51970;53.484;49.488;2024-02-21T06:47:06;-11.49;60.53
65369;HTU21D;51970;53.484;49.488;2024-02-21T06:49:34;-11.48;60.85
65369;HTU21D;51970;53.484;49.488;2024-02-21T06:52:00;-11.35;61.02
65369;HTU21D;51970;53.484;49.488;2024-02-21T06:54:26;-11.16;60.30
65369;HTU21D;51970;53.484;49.488;2024-02-21T06:56:52;-11.12;60.71
65369;HTU21D;51970;53.484;49.488;2024-02-21T06:59:18;-11.10;59.65
65369;HTU21D;51970;53.484;49.488;2024-02-21T07:01:47;-11.10;60.39
65369;HTU21D;51970;53.484;49.488;2024-02-21T07:04:14;-11.08;60.44
65369;HTU21D;51970;53.484;49.488;2024-02-21T07:06:40;-11.08;59.73
65369;HTU21D;51970;53.484;49.488;2024-02-21T07:09:07;-11.03;60.02
65369;HTU21D;51970;53.484;49.488;2024-02-21T07:11:33;-10.96;60.93
65369;HTU21D;51970;53.484;49.488;2024-02-21T07:13:59;-10.78;60.65
65369;HTU21D;51970;53.484;49.488;2024-02-21T07:16:25;-10.63;60.29
65369;HTU21D;51970;53.484;49.488;2024-02-21T07:18:52;-10.50;60.76
65369;HTU21D;51970;53.484;49.488;2024-02-21T07:21:18;-10.46;60.70
65369;HTU21D;51970;53.484;49.488;2024-02-21T07:23:44;-10.38;60.80
65369;HTU21D;51970;53.484;49.488;2024-02-21T07:26:10;-10.28;61.23
65369;HTU21D;51970;53.484;49.488;2024-02-21T07:28:36;-10.06;60.41
65369;HTU21D;51970;53.484;49.488;2024-02-21T07:31:03;-10.21;60.57
65369;HTU21D;51970;53.484;49.488;2024-02-21T07:33:30;-10.18;60.79
65369;HTU21D;51970;53.484;49.488;2024-02-21T07:35:56;-10.30;60.80
65369;HTU21D;51970;53.484;49.488;2024-02-21T07:38:22;-10.01;60.99
65369;HTU21D;51970;53.484;49.488;2024-02-21T07:40:48;-9.77;60.62
65369;HTU21D;51970;53.484;49.488;2024-02-21T07:43:14;-9.62;60.28
65369;HTU21D;51970;53.484;49.488;2024-02-21T07:45:40;-9.72;59.25
65369;HTU21D;51970;53.484;49.488;2024-02-21T07:48:07;-9.60;59.67
65369;HTU21D;51970;53.484;49.488;2024-02-21T07:50:33;-9.32;59.02
65369;HTU21D;51970;53.484;49.488;2024-02-21T07:52:59;-9.18;58.96
65369;HTU21D;51970;53.484;49.488;2024-02-21T07:55:25;-9.29;57.87
65369;HTU21D;51970;53.484;49.488;2024-02-21T07:57:51;-9.30;59.35
65369;HTU21D;51970;53.484;49.488;2024-02-21T08:00:18;-9.39;59.34
65369;HTU21D;51970;53.484;49.488;2024-02-21T08:02:48;-9.30;59.19
65369;HTU21D;51970;53.484;49.488;2024-02-21T08:05:14;-9.45;60.12
65369;HTU21D;51970;53.484;49.488;2024-02-21T08:07:41;-9.38;60.09
65369;HTU21D;51970;53.484;49.488;2024-02-21T08:10:07;-9.42;59.25
65369;HTU21D;51970;53.484;49.488;2024-02-21T08:12:34;-9.29;59.10
65369;HTU21D;51970;53.484;49.488;2024-02-21T08:15:00;-9.48;58.57
65369;HTU21D;51970;53.484;49.488;2024-02-21T08:17:27;-9.67;59.10
65369;HTU21D;51970;53.484;49.488;2024-02-21T08:19:52;-9.73;59.73
65369;HTU21D;51970;53.484;49.488;2024-02-21T08:22:18;-9.76;60.02
65369;HTU21D;51970;53.484;49.488;2024-02-21T08:24:45;-9.58;60.32
65369;HTU21D;51970;53.484;49.488;2024-02-21T08:27:11;-9.41;59.38
65369;HTU21D;51970;53.484;49.488;2024-02-21T08:29:37;-9.43;59.89
65369;HTU21D;51970;53.484;49.488;2024-02-21T08:32:04;-9.37;59.20
65369;HTU21D;51970;53.484;49.488;2024-02-21T08:34:30;-9.05;58.74
65369;HTU21D;51970;53.484;49.488;2024-02-21T08:37:00;-9.56;58.34
65369;HTU21D;51970;53.484;49.488;2024-02-21T08:39:26;-9.68;59.85
65369;HTU21D;51970;53.484;49.488;2024-02-21T08:41:54;-9.71;59.73
65369;HTU21D;51970;53.484;49.488;2024-02-21T08:44:23;-9.57;60.40
65369;HTU21D;51970;53.484;49.488;2024-02-21T08:46:51;-9.53;59.98
65369;HTU21D;51970;53.484;49.488;2024-02-21T08:49:17;-9.57;60.03
65369;HTU21D;51970;53.484;49.488;2024-02-21T08:51:43;-9.76;60.76
65369;HTU21D;51970;53.484;49.488;2024-02-21T08:54:09;-9.78;61.17
65369;HTU21D;51970;53.484;49.488;2024-02-21T08:56:35;-9.61;61.36
65369;HTU21D;51970;53.484;49.488;2024-02-21T08:59:03;-9.55;61.15
65369;HTU21D;51970;53.484;49.488;2024-02-21T09:01:29;-9.56;61.73
65369;HTU21D;51970;53.484;49.488;2024-02-21T09:03:55;-9.47;62.99
65369;HTU21D;51970;53.484;49.488;2024-02-21T09:06:23;-9.20;61.27
65369;HTU21D;51970;53.484;49.488;2024-02-21T09:08:50;-9.17;60.77
65369;HTU21D;51970;53.484;49.488;2024-02-21T09:11:15;-9.11;60.02
65369;HTU21D;51970;53.484;49.488;2024-02-21T09:13:42;-9.28;60.11
65369;HTU21D;51970;53.484;49.488;2024-02-21T09:16:08;-9.37;60.67
65369;HTU21D;51970;53.484;49.488;2024-02-21T09:18:34;-9.30;60.99
65369;HTU21D;51970;53.484;49.488;2024-02-21T09:21:00;-9.27;61.08
65369;HTU21D;51970;53.484;49.488;2024-02-21T09:23:27;-9.10;60.94
65369;HTU21D;51970;53.484;49.488;2024-02-21T09:25:53;-9.05;60.70
65369;HTU21D;51970;53.484;49.488;2024-02-21T09:28:21;-8.89;60.51
65369;HTU21D;51970;53.484;49.488;2024-02-21T09:30:47;-8.87;60.67
65369;HTU21D;51970;53.484;49.488;2024-02-21T09:33:13;-8.89;60.77
65369;HTU21D;51970;53.484;49.488;2024-02-21T09:35:39;-8.77;60.29
65369;HTU21D;51970;53.484;49.488;2024-02-21T09:38:05;-8.66;60.19
65369;HTU21D;51970;53.484;49.488;2024-02-21T09:40:31;-8.63;60.33
65369;HTU21D;51970;53.484;49.488;2024-02-21T09:43:01;-8.62;59.73
65369;HTU21D;51970;53.484;49.488;2024-02-21T09:45:29;-8.70;59.75
65369;HTU21D;51970;53.484;49.488;2024-02-21T09:50:40;-8.98;60.44
65369;HTU21D;51970;53.484;49.488;2024-02-21T09:53:07;-8.93;60.74
65369;HTU21D;51970;53.484;49.488;2024-02-21T09:55:33;-8.82;60.32
65369;HTU21D;51970;53.484;49.488;2024-02-21T09:58:04;-8.86;59.92
65369;HTU21D;51970;53.484;49.488;2024-02-21T10:00:30;-9.02;59.85
65369;HTU21D;51970;53.484;49.488;2024-02-21T10:02:56;-8.90;60.73
65369;HTU21D;51970;53.484;49.488;2024-02-21T10:05:22;-8.67;59.64
65369;HTU21D;51970;53.484;49.488;2024-02-21T10:07:51;-8.45;59.57
65369;HTU21D;51970;53.484;49.488;2024-02-21T10:10:17;-8.55;59.58
65369;HTU21D;51970;53.484;49.488;2024-02-21T10:12:51;-8.60;59.64
65369;HTU21D;51970;53.484;49.488;2024-02-21T10:15:21;-8.63;59.87
65369;HTU21D;51970;53.484;49.488;2024-02-21T10:17:49;-8.56;59.61
65369;HTU21D;51970;53.484;49.488;2024-02-21T10:20:15;-8.43;59.85
65369;HTU21D;51970;53.484;49.488;2024-02-21T10:22:42;-8.06;59.89
65369;HTU21D;51970;53.484;49.488;2024-02-21T10:25:08;-8.33;59.23
65369;HTU21D;51970;53.484;49.488;2024-02-21T10:27:36;-8.39;59.14
65369;HTU21D;51970;53.484;49.488;2024-02-21T10:30:13;-8.40;59.56
65369;HTU21D;51970;53.484;49.488;2024-02-21T10:32:53;-8.19;59.21
65369;HTU21D;51970;53.484;49.488;2024-02-21T10:35:27;-8.34;59.70
65369;HTU21D;51970;53.484;49.488;2024-02-21T10:37:55;-8.05;60.10
65369;HTU21D;51970;53.484;49.488;2024-02-21T10:40:29;-7.70;60.15
65369;HTU21D;51970;53.484;49.488;2024-02-21T10:43:01;-7.60;59.48
65369;HTU21D;51970;53.484;49.488;2024-02-21T10:45:31;-7.37;59.44
65369;HTU21D;51970;53.484;49.488;2024-02-21T10:48:08;-7.18;58.48
65369;HTU21D;51970;53.484;49.488;2024-02-21T10:56:34;-6.81;58.36
65369;HTU21D;51970;53.484;49.488;2024-02-21T10:59:04;-6.52;58.99
65369;HTU21D;51970;53.484;49.488;2024-02-21T11:01:30;-6.70;58.09
65369;HTU21D;51970;53.484;49.488;2024-02-21T11:04:05;-6.72;58.83
65369;HTU21D;51970;53.484;49.488;2024-02-21T11:06:36;-6.90;58.09
65369;HTU21D;51970;53.484;49.488;2024-02-21T11:09:05;-7.03;59.46
65369;HTU21D;51970;53.484;49.488;2024-02-21T11:11:39;-6.97;59.60
65369;HTU21D;51970;53.484;49.488;2024-02-21T11:16:37;-6.98;59.56
65369;HTU21D;51970;53.484;49.488;2024-02-21T11:19:19;-6.98;58.75
65369;HTU21D;51970;53.484;49.488;2024-02-21T11:21:45;-6.80;58.77
65369;HTU21D;51970;53.484;49.488;2024-02-21T11:24:11;-7.00;58.79
65369;HTU21D;51970;53.484;49.488;2024-02-21T11:26:37;-7.04;58.32
65369;HTU21D;51970;53.484;49.488;2024-02-21T11:29:04;-7.11;59.41
65369;HTU21D;51970;53.484;49.488;2024-02-21T11:31:43;-7.02;59.05
65369;HTU21D;51970;53.484;49.488;2024-02-21T11:34:13;-7.06;58.34
65369;HTU21D;51970;53.484;49.488;2024-02-21T11:36:58;-7.22;58.96
65369;HTU21D;51970;53.484;49.488;2024-02-21T11:39:25;-7.30;58.72
65369;HTU21D;51970;53.484;49.488;2024-02-21T11:42:04;-7.27;59.00
65369;HTU21D;51970;53.484;49.488;2024-02-21T11:44:37;-7.35;58.65
65369;HTU21D;51970;53.484;49.488;2024-02-21T11:47:06;-7.44;58.67
65369;HTU21D;51970;53.484;49.488;2024-02-21T11:49:38;-7.54;59.89
65369;HTU21D;51970;53.484;49.488;2024-02-21T11:52:07;-7.50;59.12
65369;HTU21D;51970;53.484;49.488;2024-02-21T11:54:34;-7.63;59.77
65369;HTU21D;51970;53.484;49.488;2024-02-21T11:57:00;-7.69;59.19
65369;HTU21D;51970;53.484;49.488;2024-02-21T11:59:29;-7.72;60.32
65369;HTU21D;51970;53.484;49.488;2024-02-21T12:01:58;-7.68;59.44
65369;HTU21D;51970;53.484;49.488;2024-02-21T12:04:25;-7.70;59.06
65369;HTU21D;51970;53.484;49.488;2024-02-21T12:06:52;-7.70;59.46
65369;HTU21D;51970;53.484;49.488;2024-02-21T12:09:19;-7.63;59.24
65369;HTU21D;51970;53.484;49.488;2024-02-21T12:11:45;-7.68;58.62
65369;HTU21D;51970;53.484;49.488;2024-02-21T12:14:16;-7.75;59.28
65369;HTU21D;51970;53.484;49.488;2024-02-21T12:16:42;-7.97;59.86
65369;HTU21D;51970;53.484;49.488;2024-02-21T12:19:13;-8.06;60.38
65369;HTU21D;51970;53.484;49.488;2024-02-21T12:21:39;-8.21;60.98
65369;HTU21D;51970;53.484;49.488;2024-02-21T12:24:23;-8.34;61.96
65369;HTU21D;51970;53.484;49.488;2024-02-21T12:26:50;-8.29;61.96
65369;HTU21D;51970;53.484;49.488;2024-02-21T12:29:21;-8.45;61.16
65369;HTU21D;51970;53.484;49.488;2024-02-21T12:31:47;-8.44;61.73
65369;HTU21D;51970;53.484;49.488;2024-02-21T12:34:15;-8.33;61.79
65369;HTU21D;51970;53.484;49.488;2024-02-21T12:36:42;-8.66;61.45
65369;HTU21D;51970;53.484;49.488;2024-02-21T12:39:10;-8.86;62.59
65369;HTU21D;51970;53.484;49.488;2024-02-21T12:41:37;-9.13;63.43
65369;HTU21D;51970;53.484;49.488;2024-02-21T12:44:10;-9.12;63.70
65369;HTU21D;51970;53.484;49.488;2024-02-21T12:46:40;-9.18;63.53
65369;HTU21D;51970;53.484;49.488;2024-02-21T12:49:06;-9.28;64.35
65369;HTU21D;51970;53.484;49.488;2024-02-21T12:51:36;-9.37;64.43
65369;HTU21D;51970;53.484;49.488;2024-02-21T12:54:02;-9.51;64.73
65369;HTU21D;51970;53.484;49.488;2024-02-21T12:56:29;-9.54;64.90
65369;HTU21D;51970;53.484;49.488;2024-02-21T12:58:57;-9.67;64.76
65369;HTU21D;51970;53.484;49.488;2024-02-21T13:01:23;-9.63;65.01
65369;HTU21D;51970;53.484;49.488;2024-02-21T13:03:49;-9.71;64.80
65369;HTU21D;51970;53.484;49.488;2024-02-21T13:06:16;-9.90;65.81
65369;HTU21D;51970;53.484;49.488;2024-02-21T13:08:42;-9.85;65.67
65369;HTU21D;51970;53.484;49.488;2024-02-21T13:11:10;-10.05;65.86
65369;HTU21D;51970;53.484;49.488;2024-02-21T13:13:36;-10.05;66.19
65369;HTU21D;51970;53.484;49.488;2024-02-21T13:16:02;-10.17;66.16
65369;HTU21D;51970;53.484;49.488;2024-02-21T13:18:29;-10.26;66.67
65369;HTU21D;51970;53.484;49.488;2024-02-21T13:20:55;-10.29;66.78
65369;HTU21D;51970;53.484;49.488;2024-02-21T13:23:21;-10.14;66.99
65369;HTU21D;51970;53.484;49.488;2024-02-21T13:25:47;-10.14;67.08
65369;HTU21D;51970;53.484;49.488;2024-02-21T13:28:13;-10.18;66.48
65369;HTU21D;51970;53.484;49.488;2024-02-21T13:30:42;-10.15;67.55
65369;HTU21D;51970;53.484;49.488;2024-02-21T13:33:09;-10.15;66.57
65369;HTU21D;51970;53.484;49.488;2024-02-21T13:35:35;-10.21;67.07
65369;HTU21D;51970;53.484;49.488;2024-02-21T13:38:03;-10.19;67.43
65369;HTU21D;51970;53.484;49.488;2024-02-21T13:40:29;-10.20;67.46
65369;HTU21D;51970;53.484;49.488;2024-02-21T13:42:55;-10.28;67.23
65369;HTU21D;51970;53.484;49.488;2024-02-21T13:45:22;-10.35;67.23
65369;HTU21D;51970;53.484;49.488;2024-02-21T13:47:47;-10.44;67.24
65369;HTU21D;51970;53.484;49.488;2024-02-21T13:50:14;-10.50;67.88
65369;HTU21D;51970;53.484;49.488;2024-02-21T13:52:41;-10.60;68.14
65369;HTU21D;51970;53.484;49.488;2024-02-21T13:55:08;-10.60;68.30
65369;HTU21D;51970;53.484;49.488;2024-02-21T13:57:35;-10.66;68.39
65369;HTU21D;51970;53.484;49.488;2024-02-21T14:00:02;-10.73;68.41
65369;HTU21D;51970;53.484;49.488;2024-02-21T14:02:29;-10.84;68.52
65369;HTU21D;51970;53.484;49.488;2024-02-21T14:04:55;-10.73;68.91
65369;HTU21D;51970;53.484;49.488;2024-02-21T14:07:22;-10.95;69.05
65369;HTU21D;51970;53.484;49.488;2024-02-21T14:09:48;-11.07;69.36
65369;HTU21D;51970;53.484;49.488;2024-02-21T14:12:18;-11.15;69.48
65369;HTU21D;51970;53.484;49.488;2024-02-21T14:14:46;-11.24;69.58
65369;HTU21D;51970;53.484;49.488;2024-02-21T14:17:12;-11.39;69.94
65369;HTU21D;51970;53.484;49.488;2024-02-21T14:19:38;-11.47;70.21
65369;HTU21D;51970;53.484;49.488;2024-02-21T14:22:05;-11.51;70.17
65369;HTU21D;51970;53.484;49.488;2024-02-21T14:24:31;-11.55;70.52
65369;HTU21D;51970;53.484;49.488;2024-02-21T14:26:57;-11.58;70.41
65369;HTU21D;51970;53.484;49.488;2024-02-21T14:29:23;-11.60;70.31
65369;HTU21D;51970;53.484;49.488;2024-02-21T14:31:49;-11.64;70.23
65369;HTU21D;51970;53.484;49.488;2024-02-21T14:34:16;-11.70;70.59
65369;HTU21D;51970;53.484;49.488;2024-02-21T14:36:42;-11.71;70.57
65369;HTU21D;51970;53.484;49.488;2024-02-21T14:39:08;-11.80;70.42
65369;HTU21D;51970;53.484;49.488;2024-02-21T14:41:34;-11.89;70.93
65369;HTU21D;51970;53.484;49.488;2024-02-21T14:44:05;-11.89;71.28
65369;HTU21D;51970;53.484;49.488;2024-02-21T14:46:50;-11.86;71.08
65369;HTU21D;51970;53.484;49.488;2024-02-21T14:49:16;-11.83;71.05
65369;HTU21D;51970;53.484;49.488;2024-02-21T14:51:42;-11.80;70.81
65369;HTU21D;51970;53.484;49.488;2024-02-21T14:54:08;-11.83;70.71
65369;HTU21D;51970;53.484;49.488;2024-02-21T14:56:34;-11.94;70.87
65369;HTU21D;51970;53.484;49.488;2024-02-21T14:59:01;-11.94;70.97
65369;HTU21D;51970;53.484;49.488;2024-02-21T15:01:27;-12.10;71.42
65369;HTU21D;51970;53.484;49.488;2024-02-21T15:03:53;-12.17;71.55
65369;HTU21D;51970;53.484;49.488;2024-02-21T15:06:19;-12.23;71.61